createdAt,value
2023-04-02T00:00:23.959Z,4.12
2023-04-02T00:05:51.250Z,4.15
2023-04-02T00:10:56.722Z,4.03
2023-04-02T00:16:00.450Z,4.19
2023-04-02T00:21:13.474Z,4.18
2023-04-02T00:26:30.978Z,4.12
2023-04-02T00:31:35.010Z,4.20
2023-04-02T00:36:39.432Z,4.21
2023-04-02T00:41:46.615Z,3.55
2023-04-02T00:46:50.592Z,3.70
2023-04-02T00:51:59.110Z,3.76
2023-04-02T00:57:02.827Z,3.83
2023-04-02T01:02:22.437Z,3.55
2023-04-02T01:07:41.923Z,3.61
2023-04-02T01:12:56.654Z,3.50
2023-04-02T01:18:18.107Z,3.26
2023-04-02T01:23:29.549Z,3.35
2023-04-02T01:28:47.250Z,3.61
2023-04-02T01:33:50.144Z,3.59
2023-04-02T01:39:02.178Z,3.64
2023-04-02T01:44:09.411Z,3.69
2023-04-02T01:49:15.969Z,3.60
2023-04-02T01:54:19.189Z,3.63
2023-04-02T01:59:26.340Z,3.64
2023-04-02T02:04:35.550Z,3.63
2023-04-02T02:09:38.611Z,3.59
2023-04-02T02:14:47.596Z,3.41
2023-04-02T02:19:55.674Z,3.36
2023-04-02T02:25:00.378Z,3.31
2023-04-02T02:30:12.273Z,3.17
2023-04-02T02:35:21.963Z,3.12
2023-04-02T02:40:30.918Z,3.12
2023-04-02T02:45:39.713Z,3.10
2023-04-02T02:50:42.922Z,2.95
2023-04-02T02:55:48.871Z,2.67
2023-04-02T03:00:57.254Z,2.89
2023-04-02T03:06:05.319Z,2.81
2023-04-02T03:11:15.299Z,2.80
2023-04-02T03:16:26.975Z,2.70
2023-04-02T03:21:35.982Z,2.77
2023-04-02T03:26:43.326Z,2.76
2023-04-02T03:31:54.692Z,2.70
2023-04-02T03:37:00.626Z,2.72
2023-04-02T03:42:10.022Z,2.56
2023-04-02T03:47:20.769Z,2.68
2023-04-02T03:52:27.158Z,2.60
2023-04-02T03:57:37.485Z,2.54
2023-04-02T04:02:47.063Z,2.51
2023-04-02T04:07:54.035Z,2.42
2023-04-02T04:13:04.875Z,2.42
2023-04-02T04:18:19.828Z,2.43
2023-04-02T04:23:30.198Z,2.45
2023-04-02T04:28:43.616Z,2.19
2023-04-02T04:33:54.776Z,2.34
2023-04-02T04:39:05.864Z,2.31
2023-04-02T04:44:18.232Z,2.22
2023-04-02T04:49:29.263Z,2.08
2023-04-02T04:54:32.256Z,2.17
2023-04-02T04:59:43.489Z,2.36
2023-04-02T05:04:52.522Z,2.29
2023-04-02T05:10:01.642Z,2.23
2023-04-02T05:15:17.266Z,2.22
2023-04-02T05:20:26.918Z,2.23
2023-04-02T05:25:34.151Z,2.28
2023-04-02T05:30:52.470Z,2.24
2023-04-02T05:36:02.231Z,2.16
2023-04-02T05:41:15.891Z,2.34
2023-04-02T05:46:23.466Z,2.23
2023-04-02T05:51:37.216Z,2.25
2023-04-02T05:56:44.561Z,2.30
2023-04-02T06:01:52.636Z,2.48
2023-04-02T06:07:08.100Z,2.33
2023-04-02T06:12:27.980Z,2.35
2023-04-02T06:17:43.339Z,2.31
2023-04-02T06:22:52.375Z,2.50
2023-04-02T06:27:59.300Z,2.48
2023-04-02T06:33:02.228Z,2.48
2023-04-02T06:38:16.950Z,2.84
2023-04-02T06:43:27.388Z,2.76
2023-04-02T06:48:42.807Z,2.95
2023-04-02T06:53:49.287Z,3.01
2023-04-02T06:58:54.724Z,3.08
2023-04-02T07:03:59.123Z,3.01
2023-04-02T07:09:09.553Z,2.89
2023-04-02T07:14:16.514Z,2.86
2023-04-02T07:19:22.257Z,2.69
2023-04-02T07:24:30.852Z,2.40
2023-04-02T07:29:33.572Z,2.42
2023-04-02T07:34:36.494Z,2.47
2023-04-02T07:39:41.431Z,2.49
2023-04-02T07:44:44.215Z,2.83
2023-04-02T07:49:47.010Z,3.00
2023-04-02T07:54:51.468Z,2.84
2023-04-02T07:59:56.503Z,2.81
2023-04-02T08:04:59.291Z,3.03
2023-04-02T08:10:03.658Z,3.11
2023-04-02T08:15:08.046Z,3.27
2023-04-02T08:20:16.109Z,3.22
2023-04-02T08:25:20.267Z,3.53
2023-04-02T08:30:23.276Z,3.57
2023-04-02T08:35:26.484Z,3.62
2023-04-02T08:40:35.048Z,3.82
2023-04-02T08:45:48.587Z,4.04
2023-04-02T08:50:51.873Z,4.14
2023-04-02T08:56:05.283Z,4.20
2023-04-02T09:01:12.367Z,4.42
2023-04-02T09:06:19.372Z,4.64
2023-04-02T09:11:27.238Z,4.52
2023-04-02T09:16:43.534Z,4.41
2023-04-02T09:21:56.954Z,4.80
2023-04-02T09:27:01.219Z,5.00
2023-04-02T09:32:18.773Z,4.86
2023-04-02T09:37:25.339Z,4.84
2023-04-02T09:42:35.082Z,5.25
2023-04-02T09:47:40.272Z,5.59
2023-04-02T09:52:44.889Z,5.88
2023-04-02T09:57:51.962Z,5.96
2023-04-02T10:03:06.815Z,5.80
2023-04-02T10:08:18.794Z,6.28
2023-04-02T10:13:27.763Z,6.21
2023-04-02T10:18:40.408Z,6.56
2023-04-02T10:23:43.101Z,6.62
2023-04-02T10:29:01.084Z,6.51
2023-04-02T10:34:11.320Z,6.81
2023-04-02T10:39:19.822Z,6.93
2023-04-02T10:44:36.774Z,7.00
2023-04-02T10:49:44.052Z,7.04
2023-04-02T10:54:49.656Z,7.46
2023-04-02T10:59:57.568Z,6.90
2023-04-02T11:05:04.637Z,7.23
2023-04-02T11:10:08.956Z,7.75
2023-04-02T11:15:19.129Z,7.35
2023-04-02T11:20:45.001Z,7.25
2023-04-02T11:25:48.230Z,7.15
2023-04-02T11:30:52.646Z,7.60
2023-04-02T11:35:55.532Z,10.45
2023-04-02T11:40:59.547Z,9.13
2023-04-02T11:46:05.702Z,8.41
2023-04-02T11:51:36.622Z,8.43
2023-04-02T11:56:48.243Z,8.26
2023-04-02T12:02:10.286Z,8.57
2023-04-02T12:07:35.026Z,8.81
2023-04-02T12:12:39.835Z,10.71
2023-04-02T12:17:44.902Z,10.26
2023-04-02T12:22:51.692Z,8.80
2023-04-02T12:28:05.733Z,8.98
2023-04-02T12:33:30.500Z,11.47
2023-04-02T12:38:36.727Z,10.10
2023-04-02T12:43:40.088Z,8.82
2023-04-02T12:48:44.400Z,8.94
2023-04-02T12:53:51.449Z,10.93
2023-04-02T12:58:56.554Z,11.59
2023-04-02T13:04:06.098Z,11.85
2023-04-02T13:09:29.054Z,10.96
2023-04-02T13:14:32.450Z,12.06
2023-04-02T13:19:36.708Z,11.22
2023-04-02T13:24:41.282Z,11.21
2023-04-02T13:29:44.115Z,11.96
2023-04-02T13:34:48.242Z,11.69
2023-04-02T13:39:51.034Z,12.70
2023-04-02T13:44:53.943Z,13.15
2023-04-02T13:49:58.136Z,13.31
2023-04-02T13:55:01.294Z,13.55
2023-04-02T14:00:05.366Z,14.01
2023-04-02T14:05:18.990Z,13.42
2023-04-02T14:10:33.100Z,12.83
2023-04-02T14:15:49.006Z,13.41
2023-04-02T14:21:06.448Z,13.61
2023-04-02T14:26:16.881Z,13.55
2023-04-02T14:31:28.843Z,13.81
2023-04-02T14:36:45.790Z,13.75
2023-04-02T14:41:53.372Z,12.71
2023-04-02T14:47:03.178Z,12.89
2023-04-02T14:52:12.948Z,13.57
2023-04-02T14:57:21.532Z,13.54
2023-04-02T15:02:36.095Z,13.33
2023-04-02T15:07:46.127Z,13.51
2023-04-02T15:12:50.023Z,13.47
2023-04-02T15:17:52.892Z,11.91
2023-04-02T15:23:09.391Z,11.53
2023-04-02T15:28:26.483Z,12.69
2023-04-02T15:33:42.349Z,13.27
2023-04-02T15:38:51.302Z,14.02
2023-04-02T15:44:02.793Z,14.26
2023-04-02T15:49:13.999Z,14.19
2023-04-02T15:54:34.241Z,12.28
2023-04-02T16:00:05.117Z,11.16
2023-04-02T16:05:21.833Z,10.56
2023-04-02T16:10:40.908Z,10.16
2023-04-02T16:15:50.628Z,9.69
2023-04-02T16:20:57.109Z,9.79
2023-04-02T16:26:10.575Z,9.94
2023-04-02T16:31:20.824Z,9.65
2023-04-02T16:36:36.622Z,9.12
2023-04-02T16:41:53.722Z,9.02
2023-04-02T16:47:05.561Z,9.22
2023-04-02T16:52:30.755Z,10.19
2023-04-02T16:57:42.528Z,10.59
2023-04-02T17:03:02.797Z,9.47
2023-04-02T17:08:23.861Z,9.08
2023-04-02T17:13:39.601Z,8.93
2023-04-02T17:18:44.818Z,8.79
2023-04-02T17:23:56.383Z,8.53
2023-04-02T17:29:06.983Z,8.29
2023-04-02T17:34:14.575Z,8.23
2023-04-02T17:39:22.951Z,8.26
2023-04-02T17:44:45.761Z,8.16
2023-04-02T17:49:54.299Z,7.92
2023-04-02T17:55:06.358Z,7.79
2023-04-02T18:00:36.296Z,7.66
2023-04-02T18:05:45.689Z,7.63
2023-04-02T18:10:59.271Z,7.60
2023-04-02T18:16:14.906Z,7.50
2023-04-02T18:21:25.993Z,7.37
2023-04-02T18:26:39.219Z,7.30
2023-04-02T18:31:51.587Z,7.20
2023-04-02T18:37:06.069Z,7.13
2023-04-02T18:42:20.905Z,6.97
2023-04-02T18:47:31.208Z,6.95
2023-04-02T18:52:35.271Z,6.93
2023-04-02T18:57:42.396Z,6.91
2023-04-02T19:02:50.209Z,6.95
2023-04-02T19:08:00.191Z,6.96
2023-04-02T19:13:02.982Z,6.97
2023-04-02T19:18:17.666Z,6.95
2023-04-02T19:23:38.365Z,6.91
2023-04-02T19:28:49.314Z,6.90
2023-04-02T19:34:00.497Z,6.90
2023-04-02T19:39:23.735Z,6.89
2023-04-02T19:44:26.554Z,6.81
2023-04-02T19:49:33.677Z,6.73
2023-04-02T19:54:38.289Z,6.75
2023-04-02T19:59:41.328Z,6.65
2023-04-02T20:04:45.450Z,6.47
2023-04-02T20:09:48.202Z,6.24
2023-04-02T20:14:51.111Z,6.13
2023-04-02T20:19:55.653Z,5.97
2023-04-02T20:24:58.403Z,5.85
2023-04-02T20:30:01.122Z,5.76
2023-04-02T20:35:06.028Z,5.64
2023-04-02T20:40:10.065Z,5.52
2023-04-02T20:45:12.932Z,5.41
2023-04-02T20:50:17.604Z,5.29
2023-04-02T20:55:20.451Z,5.23
2023-04-02T21:00:23.348Z,5.15
2023-04-02T21:05:27.742Z,5.05
2023-04-02T21:10:30.672Z,4.82
2023-04-02T21:15:34.195Z,4.82
2023-04-02T21:20:38.564Z,4.76
2023-04-02T21:25:41.270Z,4.74
2023-04-02T21:30:44.001Z,4.61
2023-04-02T21:35:48.887Z,4.58
2023-04-02T21:40:51.621Z,4.49
2023-04-02T21:45:59.428Z,4.49
2023-04-02T21:51:08.257Z,4.39
2023-04-02T21:56:14.194Z,4.32
2023-04-02T22:01:26.498Z,4.27
2023-04-02T22:06:33.898Z,4.16
2023-04-02T22:11:38.599Z,4.10
2023-04-02T22:16:41.767Z,3.95
2023-04-02T22:21:46.428Z,3.91
2023-04-02T22:26:50.047Z,3.87
2023-04-02T22:31:52.823Z,3.80
2023-04-02T22:36:57.147Z,3.75
2023-04-02T22:41:59.871Z,3.68
2023-04-02T22:47:02.716Z,3.58
2023-04-02T22:52:08.933Z,3.51
2023-04-02T22:57:11.674Z,3.35
2023-04-02T23:02:14.472Z,3.35
2023-04-02T23:07:18.832Z,3.32
2023-04-02T23:12:21.907Z,3.28
2023-04-02T23:17:25.087Z,3.16
2023-04-02T23:22:29.290Z,3.09
2023-04-02T23:27:32.431Z,3.03
2023-04-02T23:32:35.507Z,2.99
2023-04-02T23:37:39.672Z,2.93
2023-04-02T23:42:42.416Z,2.89
2023-04-02T23:47:45.449Z,2.72
2023-04-02T23:52:49.621Z,2.69
2023-04-02T23:57:52.397Z,2.63
